Time;durP1;ratioP1;P1;durP2;ratioP2;P2;SDS_P1;SDS_P2;PMS_P1;PMS_P2;Temp;Humidity;BMP_temperature;BMP_pressure;BME280_temperature;BME280_humidity;BME280_pressure;Samples;Min_cycle;Max_cycle;Signal;HPM_P1;HPM_P2
2022/04/28 00:01:07;;;;;;;17.65;13.05;;;19.30;64.40;;;;;;4970269;28;20109;-90
2022/04/28 00:03:33;;;;;;;17.50;12.90;;;19.50;64.00;;;;;;4976906;28;20551;-88
2022/04/28 00:05:59;;;;;;;18.58;12.57;;;19.50;63.50;;;;;;4976147;28;20038;-89
2022/04/28 00:08:25;;;;;;;26.63;13.05;;;19.60;63.50;;;;;;4977562;28;20041;-91
2022/04/28 00:10:51;;;;;;;17.70;12.60;;;19.50;63.70;;;;;;4993044;28;20030;-83
2022/04/28 00:13:17;;;;;;;18.25;12.30;;;19.40;64.00;;;;;;4973637;28;20516;-86
2022/04/28 00:15:43;;;;;;;18.83;12.60;;;19.40;63.80;;;;;;4974060;28;20038;-90
2022/04/28 00:18:08;;;;;;;15.95;11.85;;;19.40;63.70;;;;;;4977309;28;20045;-92
2022/04/28 00:20:34;;;;;;;15.52;11.70;;;19.40;63.80;;;;;;4976859;28;20078;-89
2022/04/28 00:23:00;;;;;;;17.60;11.65;;;19.50;64.10;;;;;;4977703;28;20026;-87
2022/04/28 00:25:26;;;;;;;16.13;11.07;;;19.50;63.60;;;;;;4992576;28;20436;-91
2022/04/28 00:27:54;;;;;;;16.67;11.63;;;19.40;63.80;;;;;;4976476;28;20117;-90
2022/04/28 00:30:20;;;;;;;17.90;11.95;;;19.10;64.40;;;;;;4976945;28;20037;-90
2022/04/28 00:32:46;;;;;;;17.88;12.20;;;18.80;64.60;;;;;;4992972;28;20438;-87
2022/04/28 00:35:12;;;;;;;14.25;10.75;;;18.80;65.50;;;;;;4994887;28;20093;-88
2022/04/28 00:37:38;;;;;;;17.92;11.63;;;18.80;65.30;;;;;;4991512;28;20038;-89
2022/04/28 00:40:05;;;;;;;19.88;13.18;;;18.70;65.20;;;;;;4975707;28;20033;-87
2022/04/28 00:42:31;;;;;;;14.73;10.68;;;18.50;65.90;;;;;;4976391;28;20089;-89
2022/04/28 00:44:56;;;;;;;17.92;12.27;;;18.50;66.10;;;;;;4993460;28;20030;-84
2022/04/28 00:47:22;;;;;;;15.32;11.30;;;18.30;66.60;;;;;;4993906;28;20042;-89
2022/04/28 00:52:34;;;;;;;15.65;10.85;;;18.10;67.70;;;;;;4994174;28;20093;-90
2022/04/28 00:55:00;;;;;;;14.63;10.73;;;18.30;66.40;;;;;;4964052;28;20077;-85
2022/04/28 00:57:28;;;;;;;13.23;9.50;;;18.40;66.10;;;;;;4976254;28;20022;-89
2022/04/28 00:59:54;;;;;;;13.88;9.73;;;18.50;65.70;;;;;;4994006;28;20033;-90
2022/04/28 01:02:20;;;;;;;12.82;9.48;;;18.60;65.40;;;;;;4976867;28;20026;-92
2022/04/28 01:04:49;;;;;;;13.63;9.65;;;18.90;64.70;;;;;;4984844;28;20037;-91
2022/04/28 01:07:16;;;;;;;13.02;9.10;;;19.10;64.00;;;;;;4976588;28;20026;-91
2022/04/28 01:09:42;;;;;;;14.98;9.07;;;19.40;63.50;;;;;;4977259;28;20061;-90
2022/04/28 01:12:14;;;;;;;13.05;9.43;;;19.50;63.10;;;;;;4977026;28;20072;-92
2022/04/28 01:14:44;;;;;;;13.02;8.82;;;19.50;62.70;;;;;;4977778;28;20030;-90
2022/04/28 01:17:10;;;;;;;12.15;9.50;;;19.60;62.40;;;;;;4973980;28;20121;-92
2022/04/28 01:19:36;;;;;;;12.45;9.57;;;19.30;62.80;;;;;;4976335;28;20041;-92
2022/04/28 01:22:04;;;;;;;11.85;9.20;;;19.10;63.60;;;;;;4975991;28;20022;-92
2022/04/28 01:24:30;;;;;;;12.68;9.27;;;18.80;64.20;;;;;;4977425;28;20414;-91
2022/04/28 01:26:58;;;;;;;14.70;10.32;;;18.80;64.30;;;;;;4975356;28;20057;-91
2022/04/28 01:29:23;;;;;;;11.73;8.93;;;18.90;63.90;;;;;;4975016;28;20030;-86
2022/04/28 01:31:49;;;;;;;15.57;9.95;;;18.80;64.20;;;;;;4974443;28;20524;-92
2022/04/28 01:34:15;;;;;;;15.05;10.05;;;18.80;64.20;;;;;;4957889;28;20558;-91
2022/04/28 01:36:41;;;;;;;14.18;9.32;;;18.70;64.10;;;;;;4983936;28;20034;-89
2022/04/28 01:39:08;;;;;;;14.25;9.80;;;18.70;64.70;;;;;;4976877;28;20046;-93
2022/04/28 01:41:34;;;;;;;15.70;10.68;;;18.80;64.30;;;;;;4976221;28;20026;-89
2022/04/28 01:43:59;;;;;;;13.73;9.77;;;18.80;63.90;;;;;;4975785;28;20041;-90
2022/04/28 01:46:25;;;;;;;14.43;9.68;;;18.90;64.00;;;;;;4976602;28;20112;-91
2022/04/28 01:48:51;;;;;;;15.23;9.93;;;18.80;64.30;;;;;;4978093;28;20445;-91
2022/04/28 01:56:45;;;;;;;13.52;8.85;;;18.90;63.60;;;;;;4992421;28;20042;-90
2022/04/28 01:59:10;;;;;;;12.10;8.38;;;18.80;64.20;;;;;;4979330;28;20042;-89
2022/04/28 02:01:36;;;;;;;12.52;9.32;;;18.70;64.40;;;;;;4979043;28;20026;-89
2022/04/28 02:04:02;;;;;;;11.25;8.02;;;18.80;64.10;;;;;;4980077;28;20089;-92
2022/04/28 02:06:42;;;;;;;10.95;8.35;;;18.90;63.50;;;;;;4980337;28;20430;-86
2022/04/28 02:09:09;;;;;;;11.23;8.23;;;18.90;62.70;;;;;;4977344;28;20121;-84
2022/04/28 02:11:35;;;;;;;11.18;8.20;;;18.40;64.00;;;;;;4978075;28;20057;-87
2022/04/28 02:14:00;;;;;;;11.68;8.93;;;18.00;65.20;;;;;;4980709;28;20480;-89
2022/04/28 02:16:26;;;;;;;13.48;9.02;;;18.00;65.40;;;;;;4979556;28;20053;-89
2022/04/28 02:18:52;;;;;;;11.98;8.73;;;18.10;65.60;;;;;;4979542;28;20039;-87
2022/04/28 02:21:17;;;;;;;12.10;8.95;;;18.30;65.50;;;;;;4979601;28;20121;-89
2022/04/28 02:23:43;;;;;;;12.07;8.98;;;18.20;65.70;;;;;;4978969;28;20034;-89
2022/04/28 02:26:09;;;;;;;12.95;8.88;;;18.00;65.50;;;;;;4979634;28;20093;-89
2022/04/28 02:28:35;;;;;;;12.15;8.63;;;18.00;65.80;;;;;;4979830;28;20104;-87
2022/04/28 02:31:00;;;;;;;11.45;8.85;;;18.10;65.70;;;;;;4996688;28;20053;-91
2022/04/28 02:33:26;;;;;;;11.68;8.85;;;18.30;64.90;;;;;;4979012;28;20030;-94
2022/04/28 02:35:52;;;;;;;11.63;7.57;;;18.10;65.20;;;;;;4978243;28;20046;-85
2022/04/28 02:38:18;;;;;;;11.63;7.93;;;18.40;64.40;;;;;;4979179;28;20038;-90
2022/04/28 02:40:43;;;;;;;12.57;7.68;;;18.60;63.50;;;;;;4980151;28;20034;-93
2022/04/28 02:43:09;;;;;;;9.85;6.45;;;18.70;63.20;;;;;;4979525;28;20169;-92
2022/04/28 02:45:35;;;;;;;10.50;7.32;;;18.60;63.30;;;;;;4979363;28;20077;-90
2022/04/28 02:48:01;;;;;;;9.70;6.43;;;18.60;62.80;;;;;;4976395;28;20033;-91
2022/04/28 02:50:26;;;;;;;9.23;6.78;;;18.90;62.60;;;;;;4975984;28;20058;-94
2022/04/28 02:52:52;;;;;;;9.52;6.90;;;18.80;62.60;;;;;;4978566;28;20405;-90
2022/04/28 02:55:18;;;;;;;9.10;6.90;;;18.80;62.80;;;;;;4977128;28;20027;-86
2022/04/28 02:57:44;;;;;;;10.00;6.60;;;19.10;62.20;;;;;;4978477;28;20482;-90
2022/04/28 03:00:10;;;;;;;12.43;7.03;;;18.80;62.30;;;;;;4977910;28;20037;-84
2022/04/28 03:02:36;;;;;;;9.73;7.22;;;18.40;63.60;;;;;;4981785;28;20033;-90
2022/04/28 03:05:04;;;;;;;9.18;6.45;;;17.90;64.10;;;;;;4977426;28;20026;-92
2022/04/28 03:13:02;;;;;;;9.57;6.13;;;17.80;65.30;;;;;;4996194;28;20037;-91
2022/04/28 03:15:28;;;;;;;10.32;7.13;;;17.70;64.90;;;;;;4978940;28;20033;-88
2022/04/28 03:17:54;;;;;;;9.07;6.35;;;17.80;64.20;;;;;;4976862;28;20039;-92
2022/04/28 03:20:20;;;;;;;11.00;6.85;;;17.80;64.80;;;;;;4979181;28;20019;-93
2022/04/28 03:22:45;;;;;;;10.35;7.47;;;17.80;65.00;;;;;;4978426;28;20470;-92
2022/04/28 03:25:11;;;;;;;10.20;7.30;;;18.10;64.20;;;;;;4978506;28;20390;-89
2022/04/28 03:27:37;;;;;;;10.65;7.18;;;18.20;63.70;;;;;;4994042;28;20462;-92
2022/04/28 03:30:08;;;;;;;11.65;8.13;;;18.00;63.50;;;;;;4980299;28;20027;-93
2022/04/28 03:32:33;;;;;;;11.00;7.10;;;17.60;64.90;;;;;;4963143;28;20127;-94
2022/04/28 03:34:59;;;;;;;8.80;6.65;;;17.70;64.70;;;;;;4978420;28;20125;-91
2022/04/28 03:37:25;;;;;;;8.65;6.45;;;17.90;63.90;;;;;;4977149;28;20025;-90
2022/04/28 03:39:50;;;;;;;9.45;6.63;;;17.90;63.60;;;;;;4979297;28;20057;-94
2022/04/28 03:42:17;;;;;;;8.73;6.30;;;17.90;62.80;;;;;;4978778;28;20030;-91
2022/04/28 03:44:43;;;;;;;9.85;7.05;;;18.00;62.70;;;;;;4978547;28;20026;-92
2022/04/28 03:47:09;;;;;;;11.18;7.18;;;17.90;63.00;;;;;;4978031;28;20023;-90
2022/04/28 03:49:34;;;;;;;10.13;6.97;;;17.90;63.00;;;;;;4979753;28;20405;-94
2022/04/28 03:52:01;;;;;;;8.98;6.70;;;18.00;62.90;;;;;;4978640;28;20141;-93
2022/04/28 03:54:26;;;;;;;11.05;6.70;;;17.60;64.30;;;;;;4977430;28;20130;-95
2022/04/28 03:56:52;;;;;;;9.10;6.55;;;17.40;64.50;;;;;;4976446;28;20200;-87
2022/04/28 03:59:18;;;;;;;9.07;6.13;;;17.50;64.60;;;;;;4977861;28;20034;-94
2022/04/28 04:01:43;;;;;;;9.82;6.35;;;17.70;63.60;;;;;;4978671;28;20026;-92
2022/04/28 04:04:09;;;;;;;8.68;6.20;;;17.60;63.80;;;;;;4996655;28;20084;-92
2022/04/28 04:06:35;;;;;;;9.00;6.47;;;17.50;64.00;;;;;;4977042;28;20030;-82
2022/04/28 04:09:00;;;;;;;8.57;6.30;;;17.80;62.90;;;;;;4977593;28;20548;-88
2022/04/28 04:11:26;;;;;;;8.77;6.55;;;17.70;63.70;;;;;;4977479;28;20104;-96
2022/04/28 04:13:52;;;;;;;9.90;6.63;;;17.80;63.10;;;;;;4976295;28;20041;-93
2022/04/28 04:16:17;;;;;;;12.82;6.90;;;17.90;62.80;;;;;;4981006;28;20045;-86
2022/04/28 04:18:43;;;;;;;8.68;6.70;;;18.00;62.50;;;;;;4984423;28;20046;-92
2022/04/28 04:21:09;;;;;;;8.20;5.82;;;18.10;62.10;;;;;;4979549;28;20022;-89
2022/04/28 04:23:34;;;;;;;8.85;6.22;;;18.10;62.00;;;;;;4978347;28;20038;-85
2022/04/28 04:26:01;;;;;;;9.38;6.95;;;18.40;61.50;;;;;;4973151;28;20026;-94
2022/04/28 04:28:27;;;;;;;7.85;6.10;;;18.40;61.00;;;;;;4980305;28;20030;-88
2022/04/28 04:33:37;;;;;;;8.98;5.57;;;18.30;60.80;;;;;;4995414;28;20045;-94
2022/04/28 04:36:04;;;;;;;9.50;6.32;;;18.40;60.90;;;;;;4978760;28;20129;-94
2022/04/28 04:38:30;;;;;;;7.40;5.75;;;18.40;61.10;;;;;;4981536;28;20044;-93
2022/04/28 04:40:55;;;;;;;9.43;6.05;;;18.50;61.10;;;;;;4973383;28;20026;-94
2022/04/28 04:43:21;;;;;;;8.05;5.97;;;18.60;60.70;;;;;;4627049;28;9999677;-91
2022/04/28 04:45:47;;;;;;;9.05;6.40;;;18.80;60.20;;;;;;4981742;28;20031;-87
2022/04/28 04:48:13;;;;;;;10.07;6.10;;;18.70;60.20;;;;;;4976799;28;20117;-84
2022/04/28 04:50:40;;;;;;;8.98;6.03;;;18.70;59.80;;;;;;4975422;28;20050;-88
2022/04/28 04:53:08;;;;;;;9.35;5.85;;;18.80;59.80;;;;;;4976891;28;20117;-95
2022/04/28 04:55:36;;;;;;;8.40;6.15;;;18.70;60.20;;;;;;4949941;28;20031;-77
2022/04/28 04:58:02;;;;;;;8.30;5.70;;;18.80;59.90;;;;;;4975156;28;20031;-93
2022/04/28 05:00:28;;;;;;;8.02;5.57;;;18.60;59.90;;;;;;4959381;28;20027;-91
2022/04/28 05:02:54;;;;;;;8.82;6.05;;;18.50;59.80;;;;;;4961663;28;20014;-90
2022/04/28 05:05:19;;;;;;;7.80;6.10;;;18.50;60.20;;;;;;4966052;28;20354;-94
2022/04/28 05:07:47;;;;;;;9.35;6.32;;;18.50;59.90;;;;;;4964669;28;20034;-94
2022/04/28 05:10:13;;;;;;;7.40;5.53;;;18.30;59.70;;;;;;4970695;28;20039;-89
2022/04/28 05:12:39;;;;;;;7.78;5.38;;;18.50;60.00;;;;;;4970534;28;20098;-93
2022/04/28 05:15:05;;;;;;;7.70;5.60;;;18.60;60.00;;;;;;4978429;28;20054;-83
2022/04/28 05:17:30;;;;;;;9.38;5.90;;;18.30;59.50;;;;;;4964158;28;20052;-94
2022/04/28 05:19:58;;;;;;;8.98;5.90;;;18.20;60.40;;;;;;4973980;28;20030;-92
2022/04/28 05:22:24;;;;;;;7.35;5.13;;;18.40;60.30;;;;;;4959752;28;20117;-93
2022/04/28 05:24:49;;;;;;;8.07;5.57;;;18.70;59.50;;;;;;4980076;28;20118;-96
2022/04/28 05:27:16;;;;;;;10.13;5.72;;;18.80;59.60;;;;;;4979917;28;20098;-94
2022/04/28 05:29:41;;;;;;;7.95;5.82;;;19.00;58.70;;;;;;4971694;28;20092;-80
2022/04/28 05:32:07;;;;;;;8.13;5.47;;;18.80;58.20;;;;;;4979557;28;20052;-85
2022/04/28 05:34:33;;;;;;;8.05;5.82;;;18.40;59.00;;;;;;4998005;28;20390;-91
2022/04/28 05:37:02;;;;;;;8.38;5.72;;;18.10;59.90;;;;;;4999304;28;20030;-94
2022/04/28 05:39:28;;;;;;;7.60;5.65;;;18.20;60.50;;;;;;4964235;28;20107;-91
2022/04/28 05:41:55;;;;;;;8.52;5.45;;;18.30;59.80;;;;;;4978979;28;20409;-92
2022/04/28 05:47:06;;;;;;;7.47;5.30;;;18.70;59.90;;;;;;4999969;28;20113;-93
2022/04/28 05:49:33;;;;;;;7.60;5.53;;;18.80;58.80;;;;;;4977151;28;20030;-87
2022/04/28 05:51:59;;;;;;;8.07;5.78;;;18.80;58.80;;;;;;4965494;28;20034;-91
2022/04/28 05:54:25;;;;;;;7.65;5.38;;;18.90;58.60;;;;;;4973437;28;20482;-93
2022/04/28 05:56:51;;;;;;;7.35;4.97;;;19.20;58.70;;;;;;4962360;28;20033;-90
2022/04/28 05:59:17;;;;;;;6.80;5.40;;;19.40;57.50;;;;;;4962372;28;20046;-85
2022/04/28 06:01:44;;;;;;;7.55;5.38;;;19.20;57.30;;;;;;4630155;28;9999707;-85
2022/04/28 06:04:10;;;;;;;8.55;5.40;;;19.10;57.60;;;;;;4979065;28;20027;-92
2022/04/28 06:06:37;;;;;;;8.20;5.65;;;19.00;58.50;;;;;;4980433;28;20026;-89
2022/04/28 06:09:03;;;;;;;11.52;10.00;;;19.30;58.50;;;;;;4977261;28;20027;-89
2022/04/28 06:11:29;;;;;;;6.68;4.97;;;19.50;57.70;;;;;;4962950;28;20606;-90
2022/04/28 06:13:55;;;;;;;6.20;5.00;;;19.60;57.50;;;;;;4962692;28;20489;-92
2022/04/28 06:16:21;;;;;;;7.53;5.20;;;19.80;57.30;;;;;;4961639;28;20114;-83
2022/04/28 06:18:47;;;;;;;7.75;4.88;;;20.00;56.60;;;;;;4961693;28;20039;-92
2022/04/28 06:21:13;;;;;;;6.28;4.70;;;20.10;56.30;;;;;;4961839;28;20378;-89
2022/04/28 06:23:39;;;;;;;8.38;5.25;;;20.40;55.70;;;;;;4962060;28;20118;-92
2022/04/28 06:26:05;;;;;;;6.40;4.43;;;20.70;54.60;;;;;;4978589;28;20075;-85
2022/04/28 06:28:30;;;;;;;7.25;5.20;;;20.90;54.40;;;;;;4977084;28;20031;-86
2022/04/28 06:30:56;;;;;;;6.20;4.55;;;20.60;54.70;;;;;;4960106;28;20089;-88
2022/04/28 06:33:22;;;;;;;6.75;4.95;;;20.80;54.50;;;;;;4960439;28;20474;-83
2022/04/28 06:35:48;;;;;;;6.82;5.20;;;21.10;54.30;;;;;;4976962;28;20050;-88
2022/04/28 06:38:14;;;;;;;6.38;5.00;;;20.90;55.00;;;;;;4958664;28;20035;-85
2022/04/28 06:40:39;;;;;;;6.63;4.80;;;21.00;54.80;;;;;;4977229;28;20069;-90
2022/04/28 06:43:05;;;;;;;7.88;5.15;;;21.10;53.80;;;;;;4961008;28;20035;-89
2022/04/28 06:45:31;;;;;;;9.10;4.75;;;21.10;54.40;;;;;;4960517;28;20026;-86
2022/04/28 06:47:57;;;;;;;8.75;5.15;;;21.30;52.90;;;;;;4959613;28;20026;-93
2022/04/28 06:50:22;;;;;;;6.50;4.55;;;21.20;53.70;;;;;;4960119;28;20076;-93
2022/04/28 06:52:48;;;;;;;6.63;4.85;;;21.20;54.00;;;;;;4960818;28;20023;-94
2022/04/28 06:55:15;;;;;;;8.13;5.10;;;21.10;54.70;;;;;;4961831;28;20077;-93
2022/04/28 06:57:41;;;;;;;7.57;5.47;;;21.00;54.70;;;;;;4959689;28;20205;-82
2022/04/28 07:00:08;;;;;;;6.72;5.07;;;21.00;54.60;;;;;;4960108;28;20537;-93
2022/04/28 07:02:34;;;;;;;8.23;5.60;;;20.70;55.70;;;;;;4959431;28;20085;-83
2022/04/28 07:05:00;;;;;;;7.70;6.00;;;20.80;55.70;;;;;;4959845;28;20077;-93
2022/04/28 07:07:26;;;;;;;6.63;4.80;;;21.00;54.80;;;;;;4960975;28;20116;-94
2022/04/28 07:09:52;;;;;;;6.97;5.13;;;21.10;54.50;;;;;;4960159;28;20055;-91
2022/04/28 07:12:18;;;;;;;6.60;5.28;;;21.10;54.20;;;;;;4960531;28;20101;-86
2022/04/28 07:14:44;;;;;;;6.88;5.28;;;21.10;54.60;;;;;;4959462;28;20366;-86
2022/04/28 07:17:11;;;;;;;8.25;5.93;;;21.30;54.70;;;;;;4976616;28;20161;-83
2022/04/28 07:19:36;;;;;;;8.35;5.25;;;21.50;54.70;;;;;;4976240;28;20034;-81
2022/04/28 07:22:05;;;;;;;7.25;5.43;;;21.60;53.40;;;;;;4976475;28;20027;-93
2022/04/28 07:24:35;;;;;;;7.63;5.13;;;21.90;53.50;;;;;;4959293;28;20520;-84
2022/04/28 07:27:02;;;;;;;7.10;5.53;;;22.10;53.20;;;;;;4959279;28;20141;-86
2022/04/28 07:29:28;;;;;;;9.18;5.38;;;22.60;53.00;;;;;;4959805;28;20034;-84
2022/04/28 07:31:54;;;;;;;7.20;5.75;;;22.90;52.70;;;;;;4976392;28;20027;-92
2022/04/28 07:34:19;;;;;;;8.27;5.18;;;23.40;52.70;;;;;;4958608;28;20022;-86
2022/04/28 07:36:45;;;;;;;6.90;5.40;;;23.70;51.40;;;;;;4959186;28;20386;-86
2022/04/28 07:39:11;;;;;;;7.38;5.40;;;23.80;50.40;;;;;;4959223;28;20051;-90
2022/04/28 07:41:37;;;;;;;7.68;4.93;;;24.10;50.30;;;;;;4959260;28;20030;-90
2022/04/28 07:44:03;;;;;;;6.88;5.20;;;24.30;50.50;;;;;;4976102;28;20581;-89
2022/04/28 07:46:28;;;;;;;7.13;5.47;;;24.30;50.80;;;;;;4959043;28;20537;-80
2022/04/28 07:48:54;;;;;;;7.78;5.70;;;24.30;50.90;;;;;;4958340;28;20058;-86
2022/04/28 07:51:20;;;;;;;7.53;5.70;;;24.20;51.60;;;;;;4975783;28;20065;-85
2022/04/28 07:53:45;;;;;;;8.15;5.53;;;24.20;51.30;;;;;;4958682;28;20031;-90
2022/04/28 07:56:14;;;;;;;9.32;6.38;;;24.30;51.50;;;;;;4958674;28;20058;-85
2022/04/28 07:58:41;;;;;;;7.95;5.90;;;24.50;52.20;;;;;;4975263;28;20042;-89
2022/04/28 08:01:07;;;;;;;11.10;6.00;;;24.60;50.90;;;;;;4958112;28;20026;-85
2022/04/28 08:03:32;;;;;;;7.88;5.72;;;24.30;51.10;;;;;;4958568;28;20023;-88
2022/04/28 08:05:58;;;;;;;7.93;5.97;;;24.20;51.80;;;;;;4958211;28;20022;-87
2022/04/28 08:08:37;;;;;;;7.65;5.75;;;23.90;51.60;;;;;;4958114;28;20169;-85
2022/04/28 08:11:03;;;;;;;7.80;6.00;;;24.10;51.20;;;;;;4958971;28;20045;-87
2022/04/28 08:13:29;;;;;;;9.32;6.10;;;24.10;51.60;;;;;;4958229;28;20477;-85
2022/04/28 08:15:55;;;;;;;8.27;6.13;;;24.20;51.40;;;;;;4975669;28;20097;-89
2022/04/28 08:18:21;;;;;;;8.57;5.65;;;24.20;51.00;;;;;;4975466;28;20074;-87
2022/04/28 08:20:47;;;;;;;7.53;5.88;;;24.30;51.20;;;;;;4958086;28;20110;-80
2022/04/28 08:23:14;;;;;;;8.90;5.93;;;24.40;51.50;;;;;;4955963;29;20062;-86
2022/04/28 08:25:39;;;;;;;9.27;5.78;;;24.50;50.60;;;;;;4939018;29;20024;-86
2022/04/28 08:28:05;;;;;;;8.00;5.85;;;24.70;50.30;;;;;;4938877;29;20031;-85
2022/04/28 08:30:31;;;;;;;7.57;5.65;;;24.60;50.20;;;;;;4939145;29;20090;-89
2022/04/28 08:32:59;;;;;;;7.10;5.53;;;24.70;50.80;;;;;;4955970;29;20027;-87
2022/04/28 08:35:25;;;;;;;7.20;5.40;;;25.00;51.00;;;;;;4955935;29;20046;-89
2022/04/28 08:37:51;;;;;;;6.97;5.70;;;24.90;49.60;;;;;;4939061;29;20039;-88
2022/04/28 08:40:17;;;;;;;7.70;5.25;;;24.80;50.10;;;;;;4938789;29;20062;-84
2022/04/28 08:42:44;;;;;;;7.07;5.40;;;24.90;49.80;;;;;;4939152;29;20034;-84
2022/04/28 08:45:10;;;;;;;7.40;5.68;;;25.00;49.70;;;;;;4955809;29;20031;-86
2022/04/28 08:47:36;;;;;;;8.43;5.43;;;25.20;49.30;;;;;;4939013;29;20054;-84
2022/04/28 08:50:03;;;;;;;8.57;5.90;;;25.20;49.00;;;;;;4938181;29;20549;-87
2022/04/28 08:52:30;;;;;;;6.30;5.45;;;25.10;49.30;;;;;;4938757;29;20023;-91
2022/04/28 08:54:55;;;;;;;8.80;5.82;;;25.20;49.10;;;;;;4939041;29;20027;-82
2022/04/28 08:57:23;;;;;;;6.65;5.25;;;25.50;49.10;;;;;;4938757;29;20439;-88
2022/04/28 08:59:51;;;;;;;7.47;4.90;;;25.80;49.30;;;;;;4938450;29;20494;-85
2022/04/28 09:02:27;;;;;;;6.45;4.65;;;26.00;47.50;;;;;;4940432;29;20029;-84
2022/04/28 09:05:02;;;;;;;6.85;4.60;;;26.30;47.30;;;;;;4942979;29;20078;-84
2022/04/28 09:07:37;;;;;;;5.30;4.35;;;26.60;45.90;;;;;;4942338;29;20031;-83
2022/04/28 09:10:30;;;;;;;6.03;4.13;;;26.30;45.90;;;;;;4942420;29;20030;-86
2022/04/28 09:14:09;;;;;;;4.93;3.72;;;26.70;44.80;;;;;;4932892;29;20122;-85
2022/04/28 09:15:52;;;;;;;5.00;4.00;;;26.40;43.90;;;;;;4959501;29;20042;-91
2022/04/28 09:18:18;;;;;;;7.50;3.90;;;26.30;45.50;;;;;;4941723;29;20048;-85
2022/04/28 09:20:45;;;;;;;5.60;4.00;;;25.80;44.20;;;;;;4942413;29;20028;-86
2022/04/28 09:23:12;;;;;;;5.45;3.53;;;25.50;44.90;;;;;;4942348;29;20031;-84
2022/04/28 09:25:39;;;;;;;5.85;3.83;;;24.50;47.30;;;;;;4942215;29;20122;-90
2022/04/28 09:28:06;;;;;;;4.95;3.65;;;22.60;47.50;;;;;;4942026;29;20028;-81
2022/04/28 09:30:46;;;;;;;6.32;3.90;;;23.30;46.00;;;;;;4942052;29;20039;-90
2022/04/28 09:33:13;;;;;;;5.50;3.80;;;24.50;44.30;;;;;;4941673;29;20355;-85
2022/04/28 09:35:47;;;;;;;5.65;3.83;;;25.00;45.90;;;;;;4942176;29;20059;-83
2022/04/28 09:38:13;;;;;;;4.53;3.50;;;25.20;44.60;;;;;;4958537;29;20040;-79
2022/04/28 09:43:22;;;;;;;4.93;3.42;;;24.50;43.40;;;;;;4959389;29;20038;-84
2022/04/28 09:45:51;;;;;;;4.93;3.35;;;25.30;44.30;;;;;;4941718;29;20036;-81
2022/04/28 09:48:19;;;;;;;4.67;3.10;;;26.00;43.90;;;;;;4959123;29;20074;-83
2022/04/28 09:50:45;;;;;;;5.80;3.38;;;26.40;43.80;;;;;;4941694;29;20024;-88
2022/04/28 09:53:11;;;;;;;5.28;3.35;;;26.30;41.10;;;;;;4941795;29;20042;-83
2022/04/28 09:55:40;;;;;;;5.65;3.25;;;26.30;43.80;;;;;;4941583;29;20034;-82
2022/04/28 09:58:06;;;;;;;6.22;3.15;;;26.00;42.70;;;;;;4958428;29;20031;-77
2022/04/28 10:00:33;;;;;;;5.03;3.45;;;25.10;42.50;;;;;;4941735;29;20038;-94
2022/04/28 10:03:04;;;;;;;5.15;3.47;;;24.80;43.80;;;;;;4941608;29;20383;-91
2022/04/28 10:05:29;;;;;;;;;;;25.00;43.50;;;;;;4942273;29;20027;-90
2022/04/28 10:07:57;;;;;;;5.05;3.20;;;25.30;42.90;;;;;;4941358;29;19918;-88
2022/04/28 10:10:26;;;;;;;8.88;3.60;;;26.00;43.60;;;;;;4941753;29;20023;-88
2022/04/28 10:12:53;;;;;;;4.50;3.00;;;25.50;41.90;;;;;;4941231;28;20122;-83
2022/04/28 10:15:20;;;;;;;4.35;3.20;;;24.30;42.20;;;;;;4941255;29;20023;-91
2022/04/28 10:17:52;;;;;;;5.55;3.50;;;23.00;44.00;;;;;;4941611;29;20033;-91
2022/04/28 10:20:20;;;;;;;5.55;3.30;;;23.90;44.20;;;;;;4942979;29;20027;-81
2022/04/28 10:22:49;;;;;;;4.53;3.38;;;24.30;44.90;;;;;;4941419;29;20023;-84
2022/04/28 10:34:15;;;;;;;4.97;3.30;;;24.70;44.10;;;;;;4959021;29;20082;-87
2022/04/28 10:36:56;;;;;;;6.20;3.70;;;24.50;44.00;;;;;;4926351;29;20050;-85
2022/04/28 10:39:39;;;;;;;6.18;3.88;;;24.90;43.00;;;;;;4941322;29;20118;-88
2022/04/28 10:42:42;;;;;;;4.68;3.17;;;25.10;44.60;;;;;;4941490;29;20074;-90
2022/04/28 10:45:28;;;;;;;4.20;3.17;;;25.30;44.60;;;;;;4941148;29;20465;-89
2022/04/28 10:48:30;;;;;;;5.82;3.38;;;25.60;43.40;;;;;;4941121;29;20027;-92
2022/04/28 10:51:00;;;;;;;4.55;3.25;;;25.40;42.70;;;;;;4940693;29;20420;-84
2022/04/28 10:53:27;;;;;;;4.63;3.38;;;25.00;43.20;;;;;;4957821;29;20019;-89
2022/04/28 10:55:53;;;;;;;5.38;3.55;;;24.80;43.80;;;;;;4958274;29;20031;-87
2022/04/28 10:58:23;;;;;;;5.22;3.55;;;25.20;44.00;;;;;;4940645;29;20035;-83
2022/04/28 11:00:54;;;;;;;5.03;3.47;;;25.30;43.90;;;;;;4940918;29;20439;-87
2022/04/28 11:03:48;;;;;;;5.10;3.55;;;25.80;42.50;;;;;;4940725;29;20027;-87
2022/04/28 11:06:17;;;;;;;4.63;3.30;;;26.10;43.50;;;;;;4940467;29;20027;-88
2022/04/28 11:08:48;;;;;;;6.25;3.38;;;26.70;43.30;;;;;;4940531;29;20038;-87
2022/04/28 11:11:14;;;;;;;4.88;3.40;;;27.10;42.40;;;;;;4940329;29;20035;-83
2022/04/28 11:13:43;;;;;;;4.88;3.78;;;27.20;41.00;;;;;;4940201;29;20035;-86
2022/04/28 11:16:10;;;;;;;5.18;3.38;;;27.20;41.30;;;;;;4940291;29;20082;-88
2022/04/28 11:18:37;;;;;;;5.75;3.90;;;27.00;42.30;;;;;;4940068;29;20070;-86
2022/04/28 11:21:04;;;;;;;4.82;3.47;;;26.90;43.00;;;;;;4940359;29;20023;-86
2022/04/28 11:23:41;;;;;;;5.03;3.75;;;26.70;42.50;;;;;;4940029;29;20055;-84
2022/04/28 11:26:17;;;;;;;6.00;3.25;;;26.80;44.20;;;;;;4957337;28;20032;-82
2022/04/28 11:28:43;;;;;;;5.15;3.35;;;26.80;41.20;;;;;;4940597;29;20027;-88
2022/04/28 11:31:12;;;;;;;4.35;3.33;;;26.70;40.90;;;;;;4940339;29;20394;-86
2022/04/28 11:33:43;;;;;;;6.03;3.10;;;26.70;41.30;;;;;;4941423;29;20038;-85
2022/04/28 11:36:28;;;;;;;5.95;3.60;;;26.80;41.80;;;;;;4943042;29;20047;-88
2022/04/28 11:39:02;;;;;;;5.10;3.33;;;26.80;41.30;;;;;;4944800;29;20043;-87
2022/04/28 11:41:39;;;;;;;4.90;3.45;;;26.80;41.30;;;;;;4942082;29;20046;-86
2022/04/28 11:44:13;;;;;;;4.93;3.40;;;26.90;41.30;;;;;;4940190;29;20023;-86
2022/04/28 11:46:47;;;;;;;5.30;3.50;;;26.60;40.40;;;;;;4941179;29;20054;-87
2022/04/28 11:49:14;;;;;;;5.78;3.55;;;26.50;42.30;;;;;;4941540;29;20031;-87
2022/04/28 11:51:43;;;;;;;4.30;3.17;;;26.30;41.00;;;;;;4942499;29;20030;-85
2022/04/28 11:54:22;;;;;;;7.07;4.20;;;26.10;42.40;;;;;;4941788;29;20114;-87
2022/04/28 11:56:48;;;;;;;4.75;3.70;;;26.00;43.30;;;;;;4941756;29;20027;-85
2022/04/28 11:59:14;;;;;;;6.18;3.60;;;25.60;43.30;;;;;;4942092;29;20035;-87
2022/04/28 12:01:40;;;;;;;5.35;3.65;;;25.30;43.10;;;;;;4942470;29;20041;-80
2022/04/28 12:04:06;;;;;;;6.45;3.97;;;25.00;43.30;;;;;;4941276;29;20121;-82
2022/04/28 12:06:32;;;;;;;4.68;3.70;;;25.20;44.40;;;;;;4941295;29;20116;-83
2022/04/28 12:14:30;;;;;;;5.10;3.80;;;26.10;44.40;;;;;;4960059;29;20114;-86
2022/04/28 12:19:50;;;;;;;4.90;3.72;;;26.80;44.00;;;;;;4957932;29;20501;-85
2022/04/28 12:22:23;;;;;;;;;;;27.10;43.40;;;;;;4940049;29;20027;-87
2022/04/28 12:24:49;;;;;;;4.90;3.60;;;27.40;43.40;;;;;;4939509;29;20314;-90
2022/04/28 12:27:15;;;;;;;6.03;3.60;;;27.10;42.00;;;;;;4939716;29;20109;-88
2022/04/28 12:29:52;;;;;;;5.45;3.50;;;27.00;42.20;;;;;;4939257;29;20027;-87
2022/04/28 12:32:21;;;;;;;4.97;3.28;;;26.90;41.80;;;;;;4939664;29;20462;-91
2022/04/28 12:35:02;;;;;;;6.18;3.83;;;26.70;41.10;;;;;;4956381;29;20051;-88
2022/04/28 12:37:28;;;;;;;;;;;26.80;41.60;;;;;;4938959;29;20522;-87
2022/04/28 12:39:59;;;;;;;5.40;3.53;;;27.20;40.80;;;;;;4956055;29;20389;-84
2022/04/28 12:42:29;;;;;;;4.63;3.40;;;27.60;41.50;;;;;;4939064;29;20023;-85
2022/04/28 12:45:03;;;;;;;4.67;3.30;;;27.80;41.60;;;;;;4938981;29;20058;-84
2022/04/28 12:47:36;;;;;;;5.03;3.63;;;27.00;42.20;;;;;;4939408;29;20690;-86
2022/04/28 12:50:26;;;;;;;4.55;3.17;;;27.00;42.40;;;;;;4938762;29;20031;-83
2022/04/28 12:52:52;;;;;;;4.80;3.35;;;27.40;41.50;;;;;;4938782;29;20063;-85
2022/04/28 12:55:20;;;;;;;6.57;3.70;;;27.80;42.80;;;;;;4939255;29;20054;-86
2022/04/28 12:57:47;;;;;;;4.70;3.40;;;28.00;42.40;;;;;;4938759;29;20043;-84
2022/04/28 13:00:14;;;;;;;4.85;3.10;;;28.50;41.80;;;;;;4938651;29;20024;-86
2022/04/28 13:02:51;;;;;;;5.30;3.40;;;28.70;40.60;;;;;;4938503;29;20077;-87
2022/04/28 13:05:19;;;;;;;6.45;3.40;;;28.50;39.60;;;;;;4938592;29;20035;-85
2022/04/28 13:07:45;;;;;;;4.65;3.08;;;28.10;40.30;;;;;;4938710;29;20439;-85
2022/04/28 13:10:16;;;;;;;4.60;3.22;;;27.40;42.30;;;;;;4938196;29;20129;-84
2022/04/28 13:12:42;;;;;;;4.68;3.40;;;27.40;41.80;;;;;;4938719;29;20024;-86
2022/04/28 13:15:08;;;;;;;5.53;3.67;;;27.10;40.70;;;;;;4938477;29;20503;-85
2022/04/28 13:17:36;;;;;;;5.63;3.38;;;26.90;41.70;;;;;;4938669;29;20027;-84
2022/04/28 13:20:04;;;;;;;6.13;3.40;;;27.20;42.10;;;;;;4938568;29;20035;-85
2022/04/28 13:22:29;;;;;;;5.20;3.53;;;27.50;41.60;;;;;;4938153;29;20023;-83
2022/04/28 13:24:55;;;;;;;5.15;3.22;;;27.70;42.00;;;;;;4955471;29;20046;-82